Time;durP1;ratioP1;P1;durP2;ratioP2;P2;SDS_P1;SDS_P2;PMS_P1;PMS_P2;Temp;Humidity;BMP_temperature;BMP_pressure;BME280_temperature;BME280_humidity;BME280_pressure;Samples;Min_cycle;Max_cycle;Signal;HPM_P1;HPM_P2
2022/06/14 00:01:32;;;;;;;8.00;5.22;;;;;;;18.89;89.81;94812.88;5074372;28;20163;-79
2022/06/14 00:03:58;;;;;;;5.45;4.85;;;;;;;18.89;89.90;94819.00;5074284;28;20167;-80
2022/06/14 00:06:27;;;;;;;15.18;9.75;;;;;;;18.81;90.04;94816.84;5074066;28;20177;-80
2022/06/14 00:08:52;;;;;;;14.10;10.07;;;;;;;18.74;90.51;94808.31;5074804;28;20170;-80
2022/06/14 00:11:22;;;;;;;13.20;8.85;;;;;;;18.79;90.51;94833.13;5056484;28;20202;-80
2022/06/14 00:13:48;;;;;;;13.25;6.32;;;;;;;18.65;90.30;94808.03;5074606;28;20181;-80
2022/06/14 00:16:15;;;;;;;18.73;11.68;;;;;;;18.73;90.81;94826.19;5073840;28;20179;-80
2022/06/14 00:18:41;;;;;;;8.65;5.05;;;;;;;18.65;90.81;94818.69;5074404;28;20185;-80
2022/06/14 00:21:06;;;;;;;11.88;6.35;;;;;;;18.62;91.14;94819.19;5074066;28;20174;-80
2022/06/14 00:23:32;;;;;;;13.35;7.18;;;;;;;18.58;91.54;94815.47;5073948;28;20639;-80
2022/06/14 00:25:59;;;;;;;11.35;6.40;;;;;;;18.62;91.33;94815.72;5073915;28;20178;-80
2022/06/14 00:28:27;;;;;;;16.90;5.75;;;;;;;18.55;91.02;94812.47;5074065;28;20676;-80
2022/06/14 00:30:56;;;;;;;14.32;6.78;;;;;;;18.59;91.23;94821.59;5073955;28;20166;-80
2022/06/14 00:33:21;;;;;;;8.68;5.13;;;;;;;18.38;91.18;94797.50;5073881;28;20178;-80
2022/06/14 00:35:47;;;;;;;13.43;5.20;;;;;;;18.46;91.67;94807.66;5074095;28;20179;-80
2022/06/14 00:38:14;;;;;;;6.60;4.72;;;;;;;18.42;91.61;94805.78;5065189;28;20631;-80
2022/06/14 00:40:41;;;;;;;9.10;4.82;;;;;;;18.51;91.52;94819.41;5073815;28;20202;-80
2022/06/14 00:43:16;;;;;;;6.47;5.15;;;;;;;18.46;91.89;94826.31;5074348;28;20190;-80
2022/06/14 00:45:42;;;;;;;14.70;9.40;;;;;;;18.50;91.94;94825.81;5074131;28;20558;-80
2022/06/14 00:48:15;;;;;;;22.88;13.98;;;;;;;18.51;92.16;94835.41;5073652;28;20163;-80
2022/06/14 00:50:47;;;;;;;28.20;17.77;;;;;;;18.49;92.03;94833.00;5073564;28;20202;-80
2022/06/14 00:53:20;;;;;;;12.13;8.30;;;;;;;18.10;91.87;94782.69;5073535;28;20173;-80
2022/06/14 00:55:55;;;;;;;14.73;8.98;;;;;;;18.16;92.19;94796.06;5073449;28;20177;-79
2022/06/14 00:58:31;;;;;;;24.33;10.40;;;;;;;18.37;92.29;94829.72;5073400;28;20212;-80
2022/06/14 01:01:03;;;;;;;13.60;8.50;;;;;;;18.38;92.04;94829.47;5065608;28;20596;-79
2022/06/14 01:03:37;;;;;;;12.45;7.18;;;;;;;18.37;92.12;94830.53;5073347;28;20256;-80
2022/06/14 01:06:09;;;;;;;9.75;7.25;;;;;;;18.38;91.69;94829.47;5073518;28;20181;-80
2022/06/14 01:08:40;;;;;;;10.75;6.97;;;;;;;18.35;91.52;94832.66;5073239;28;20218;-80
2022/06/14 01:11:10;;;;;;;7.95;5.25;;;;;;;18.32;91.36;94833.19;5055414;28;20223;-79
2022/06/14 01:13:36;;;;;;;7.90;4.85;;;;;;;18.16;91.39;94809.38;5073213;28;20167;-80
2022/06/14 01:16:02;;;;;;;8.50;4.85;;;;;;;18.22;91.42;94825.13;5073179;28;20314;-79
2022/06/14 01:18:29;;;;;;;6.00;4.80;;;;;;;18.12;91.59;94817.09;5072903;28;20208;-80
2022/06/14 01:20:54;;;;;;;7.72;5.05;;;;;;;18.15;91.87;94823.75;5072920;28;20182;-80
2022/06/14 01:23:22;;;;;;;6.05;5.05;;;;;;;18.02;91.97;94814.34;5072864;28;20746;-79
2022/06/14 01:25:57;;;;;;;9.63;5.97;;;;;;;17.83;92.79;94791.88;5073100;28;20178;-80
2022/06/14 01:28:25;;;;;;;17.13;11.35;;;;;;;17.94;93.01;94812.19;5071981;28;20648;-79
2022/06/14 01:30:52;;;;;;;11.32;7.20;;;;;;;17.71;93.56;94806.19;5072767;28;20676;-79
2022/06/14 01:33:20;;;;;;;11.52;6.60;;;;;;;17.73;93.98;94807.81;5072893;28;20650;-79
2022/06/14 01:35:52;;;;;;;12.70;7.97;;;;;;;17.59;93.75;94789.56;5072390;28;20236;-79
2022/06/14 01:38:19;;;;;;;15.73;8.02;;;;;;;17.55;93.88;94783.16;5072438;28;20257;-79
2022/06/14 01:41:05;;;;;;;25.30;13.52;;;;;;;17.77;94.11;94809.69;5072730;28;20282;-79
2022/06/14 01:43:51;;;;;;;31.10;17.60;;;;;;;17.82;93.94;94812.38;5072170;28;20273;-79
2022/06/14 01:46:24;;;;;;;29.88;17.38;;;;;;;17.84;93.46;94815.56;5064692;28;20660;-79
2022/06/14 01:52:02;;;;;;;22.63;13.25;;;;;;;17.82;93.22;94806.22;5066219;28;20213;-79
2022/06/14 01:55:05;;;;;;;22.83;12.15;;;;;;;17.79;92.95;94804.91;5071261;28;20239;-79
2022/06/14 01:57:40;;;;;;;18.98;10.82;;;;;;;17.66;92.98;94794.69;5056646;28;20664;-79
2022/06/14 02:00:21;;;;;;;12.18;8.02;;;;;;;17.73;93.13;94813.13;5064171;28;20177;-79
2022/06/14 02:04:37;;;;;;;14.55;7.45;;;;;;;17.83;93.53;94823.81;5070915;28;20233;-80
2022/06/14 02:05:49;;;;;;;11.52;7.32;;;;;;;17.81;93.56;94829.44;5066050;28;20182;-80
2022/06/14 02:08:22;;;;;;;10.98;6.13;;;;;;;17.71;93.79;94811.53;5072334;28;20276;-79
2022/06/14 02:11:01;;;;;;;10.85;6.13;;;;;;;17.79;93.63;94820.09;5064280;28;20178;-80
2022/06/14 02:13:32;;;;;;;8.10;5.80;;;;;;;17.77;93.59;94827.50;5072183;28;20258;-79
2022/06/14 02:16:07;;;;;;;18.98;10.90;;;;;;;17.76;93.79;94833.91;5072011;28;20170;-80
2022/06/14 02:18:42;;;;;;;15.00;10.18;;;;;;;17.78;93.77;94831.78;5072124;28;20181;-80
2022/06/14 02:21:16;;;;;;;12.85;7.60;;;;;;;17.66;93.12;94839.94;5071731;28;20195;-79
2022/06/14 02:23:47;;;;;;;10.10;6.22;;;;;;;17.55;93.91;94836.41;5063293;28;20197;-80
2022/06/14 02:26:37;;;;;;;18.88;8.68;;;;;;;17.62;93.70;94841.53;5071676;28;20638;-80
2022/06/14 02:29:15;;;;;;;12.40;7.75;;;;;;;17.49;93.91;94829.41;5062575;28;20179;-80
2022/06/14 02:31:52;;;;;;;7.70;5.78;;;;;;;17.54;94.05;94855.28;5072060;28;20177;-80
2022/06/14 02:34:26;;;;;;;9.23;6.70;;;;;;;17.16;94.66;94825.13;5071556;28;20232;-80
2022/06/14 02:36:59;;;;;;;11.50;7.88;;;;;;;17.24;95.08;94832.66;5072008;28;20162;-80
2022/06/14 02:39:34;;;;;;;21.70;13.38;;;;;;;17.26;95.00;94827.91;5071376;28;20256;-80
2022/06/14 02:42:04;;;;;;;17.83;9.55;;;;;;;17.47;94.85;94860.00;5063287;28;20200;-80
2022/06/14 02:44:38;;;;;;;14.93;8.73;;;;;;;17.46;94.99;94861.88;5071746;28;20163;-80
2022/06/14 02:47:31;;;;;;;16.05;9.82;;;;;;;17.52;94.05;94868.03;5071980;28;20201;-80
2022/06/14 02:50:26;;;;;;;16.17;7.45;;;;;;;17.52;93.43;94871.50;5066666;28;20174;-80
2022/06/14 02:52:58;;;;;;;11.63;6.97;;;;;;;17.41;94.21;94869.00;5049967;28;20178;-80
2022/06/14 02:55:30;;;;;;;11.43;6.80;;;;;;;17.30;94.45;94860.91;5071248;28;20167;-80
2022/06/14 02:58:13;;;;;;;9.93;7.32;;;;;;;17.27;94.25;94852.66;5071591;28;20170;-80
2022/06/14 03:00:47;;;;;;;10.02;7.63;;;;;;;17.44;94.29;94869.31;5071826;28;20198;-80
2022/06/14 03:03:21;;;;;;;10.85;7.88;;;;;;;17.48;93.88;94870.38;5071030;28;20202;-80
2022/06/14 03:06:03;;;;;;;15.18;10.45;;;;;;;17.47;93.79;94863.44;5071449;28;20718;-80
2022/06/14 03:08:44;;;;;;;22.77;13.40;;;;;;;17.35;93.45;94846.88;5071485;28;20225;-80
2022/06/14 03:11:24;;;;;;;23.15;12.13;;;;;;;17.55;94.06;94878.19;5071278;28;20550;-80
2022/06/14 03:14:15;;;;;;;19.50;10.05;;;;;;;17.62;93.55;94882.28;5069762;28;20676;-80
2022/06/14 03:17:04;;;;;;;8.98;7.43;;;;;;;17.66;93.11;94878.03;5071144;28;20213;-80
2022/06/14 03:19:43;;;;;;;8.88;6.53;;;;;;;17.66;93.24;94879.88;5069369;28;20167;-81
2022/06/14 03:22:08;;;;;;;16.55;8.30;;;;;;;17.67;93.00;94882.31;5071009;28;20184;-81
2022/06/14 03:24:50;;;;;;;14.93;9.00;;;;;;;17.75;93.56;94889.00;5071326;28;20178;-80
2022/06/14 03:27:23;;;;;;;13.32;7.35;;;;;;;17.63;94.10;94851.13;5068363;28;20171;-81
2022/06/14 03:30:02;;;;;;;17.60;7.60;;;;;;;17.79;93.93;94873.34;5070547;28;20177;-81
2022/06/14 03:33:11;;;;;;;10.40;7.00;;;;;;;17.95;93.78;94869.72;5070300;28;20713;-81
2022/06/14 03:35:41;;;;;;;14.27;7.65;;;;;;;18.08;93.16;94867.41;5068446;28;20594;-81
2022/06/14 03:38:12;;;;;;;13.02;7.65;;;;;;;18.15;92.85;94875.19;5070542;28;20178;-81
2022/06/14 03:40:39;;;;;;;13.20;8.27;;;;;;;18.10;92.80;94849.31;5052278;28;20173;-81
2022/06/14 03:43:05;;;;;;;20.17;8.20;;;;;;;18.44;93.01;94883.59;5070115;28;20210;-80
2022/06/14 03:45:44;;;;;;;15.95;8.98;;;;;;;18.58;92.38;94876.78;5070552;28;20677;-81
2022/06/14 03:48:10;;;;;;;21.92;11.55;;;;;;;18.79;91.65;94889.13;5069943;28;20178;-81
2022/06/14 03:50:49;;;;;;;26.33;15.25;;;;;;;18.89;90.60;94896.38;5070154;28;20167;-81
2022/06/14 03:53:43;;;;;;;17.95;12.00;;;;;;;19.03;90.73;94891.34;5070865;28;20174;-81
2022/06/14 03:56:50;;;;;;;30.48;19.52;;;;;;;19.06;90.60;94878.28;5068811;28;20170;-80
2022/06/14 03:59:24;;;;;;;46.47;24.88;;;;;;;19.25;89.60;94891.16;5068929;28;20728;-80
2022/06/14 04:02:08;;;;;;;44.92;28.42;;;;;;;19.28;89.38;94895.97;5069398;28;20193;-80
2022/06/14 04:04:44;;;;;;;40.58;25.70;;;;;;;19.28;89.32;94896.78;5071183;28;20170;-80
2022/06/14 04:07:32;;;;;;;32.30;22.38;;;;;;;19.31;89.57;94890.91;5072671;28;20225;-80
2022/06/14 04:10:32;;;;;;;34.80;22.70;;;;;;;19.41;89.50;94893.59;5068812;28;20208;-80
2022/06/14 04:13:03;;;;;;;35.25;21.88;;;;;;;19.59;89.41;94900.31;5063972;28;20601;-80
2022/06/14 04:15:50;;;;;;;29.75;18.73;;;;;;;19.67;88.38;94889.09;5055985;28;20989;-80
2022/06/14 04:18:41;;;;;;;28.30;17.80;;;;;;;19.78;87.60;94881.91;5072371;28;20247;-80
2022/06/14 04:21:38;;;;;;;17.77;13.23;;;;;;;20.15;87.75;94903.00;5072884;28;20206;-80
2022/06/14 04:24:09;;;;;;;14.65;10.07;;;;;;;20.32;85.29;94877.56;5053537;28;20183;-80
2022/06/14 04:26:57;;;;;;;13.38;7.60;;;;;;;20.53;83.13;94907.75;5073783;28;20749;-80
2022/06/14 04:29:52;;;;;;;8.02;6.13;;;;;;;20.69;83.03;94916.53;5073861;28;20163;-80
2022/06/14 04:32:34;;;;;;;9.20;5.78;;;;;;;21.02;83.38;94913.22;5032916;28;20213;-81
2022/06/14 04:35:18;;;;;;;12.23;6.60;;;;;;;21.36;82.72;94913.34;5073962;28;20228;-80
2022/06/14 04:37:53;;;;;;;12.13;6.00;;;;;;;21.70;81.38;94899.22;5073905;28;20216;-81
2022/06/14 04:40:25;;;;;;;18.17;7.22;;;;;;;21.97;76.86;94904.91;5073242;28;20189;-80
2022/06/14 04:43:13;;;;;;;12.15;6.43;;;;;;;22.33;77.72;94915.34;5073807;28;20281;-81
2022/06/14 04:45:57;;;;;;;11.45;6.10;;;;;;;22.47;75.99;94921.66;5073529;28;20649;-79
2022/06/14 04:48:38;;;;;;;11.98;5.95;;;;;;;22.58;74.63;94928.50;5073885;28;20178;-80
2022/06/14 04:51:20;;;;;;;22.52;6.15;;;;;;;22.52;74.91;94913.53;5073605;28;20175;-81
2022/06/14 04:54:08;;;;;;;14.00;6.07;;;;;;;22.78;76.09;94914.09;5067231;28;20266;-80
2022/06/14 04:56:39;;;;;;;23.70;6.50;;;;;;;23.11;75.10;94934.66;5073920;28;20239;-80
2022/06/14 04:59:12;;;;;;;11.07;5.45;;;;;;;23.10;74.04;94918.81;5073174;28;20595;-80
2022/06/14 05:01:46;;;;;;;6.93;5.05;;;;;;;23.19;74.19;94934.00;5073365;28;20182;-80
2022/06/14 05:04:29;;;;;;;29.80;17.08;;;;;;;23.21;74.01;94933.72;5073347;28;20174;-80
2022/06/14 05:07:01;;;;;;;19.80;13.13;;;;;;;23.32;75.01;94937.91;5073088;28;20222;-80
2022/06/14 05:09:31;;;;;;;11.95;7.63;;;;;;;23.61;73.94;94957.41;5073010;28;20174;-80
2022/06/14 05:12:15;;;;;;;15.77;9.40;;;;;;;23.99;72.10;94952.03;5073382;28;20178;-80
2022/06/14 05:14:51;;;;;;;13.32;6.32;;;;;;;24.19;71.36;94954.41;5072875;28;20186;-80
2022/06/14 05:17:35;;;;;;;13.25;5.65;;;;;;;24.14;70.00;94959.88;5064875;28;20515;-80
2022/06/14 05:20:12;;;;;;;11.88;5.50;;;;;;;24.23;70.78;94960.81;5072351;28;20201;-80
2022/06/14 05:22:55;;;;;;;8.55;4.82;;;;;;;24.29;70.27;94948.09;5063991;28;20281;-80
2022/06/14 05:25:21;;;;;;;8.30;5.50;;;;;;;24.39;69.89;94964.06;5072089;28;20186;-80
2022/06/14 05:27:50;;;;;;;15.90;6.28;;;;;;;24.29;70.19;94970.44;5071877;28;20652;-80
2022/06/14 05:30:37;;;;;;;11.10;5.80;;;;;;;24.17;71.31;94963.88;5072123;28;20292;-80
2022/06/14 05:33:33;;;;;;;13.23;5.78;;;;;;;23.91;71.47;94971.53;5055521;28;20170;-80
2022/06/14 05:36:37;;;;;;;10.13;6.45;;;;;;;23.64;72.50;94975.66;5073025;28;20190;-80
2022/06/14 05:39:15;;;;;;;8.93;5.82;;;;;;;23.30;73.65;94962.38;5043418;28;20201;-80
2022/06/14 05:41:46;;;;;;;10.40;6.53;;;;;;;23.02;74.24;94938.25;5072271;28;20171;-80
2022/06/14 05:44:33;;;;;;;19.45;11.25;;;;;;;23.05;74.54;94973.41;5072960;28;20701;-80
2022/06/14 05:47:08;;;;;;;23.00;13.95;;;;;;;22.94;76.00;94982.66;5065764;28;20178;-80
2022/06/14 05:49:38;;;;;;;22.77;9.55;;;;;;;22.87;77.44;94980.31;5054901;28;20544;-80
2022/06/14 05:52:15;;;;;;;20.75;11.55;;;;;;;22.79;77.23;94980.13;5072493;28;20181;-80
2022/06/14 05:54:51;;;;;;;9.90;5.85;;;;;;;22.73;77.83;94983.94;5072434;28;20653;-80
2022/06/14 05:57:31;;;;;;;9.32;5.28;;;;;;;22.64;78.20;94985.63;5072235;28;20185;-80
2022/06/14 06:00:04;;;;;;;15.85;7.72;;;;;;;22.50;78.04;94988.16;5072734;28;20174;-80
2022/06/14 06:02:39;;;;;;;9.10;4.43;;;;;;;22.16;78.26;94967.50;5072316;28;20233;-80
2022/06/14 06:05:16;;;;;;;8.43;4.72;;;;;;;21.94;79.84;94980.53;5072133;28;20775;-80
2022/06/14 06:07:49;;;;;;;10.95;5.70;;;;;;;21.82;80.64;94978.19;5071829;28;20606;-80
2022/06/14 06:10:19;;;;;;;6.75;4.55;;;;;;;21.78;81.76;94981.72;5072212;28;20273;-80
2022/06/14 06:13:16;;;;;;;6.32;5.18;;;;;;;21.89;81.77;94980.53;5072227;28;20210;-80
2022/06/14 06:15:48;;;;;;;21.00;6.25;;;;;;;21.84;82.57;94968.00;5070093;28;20190;-80
2022/06/14 06:18:31;;;;;;;10.00;5.65;;;;;;;21.74;81.43;94945.81;5072406;28;20182;-80
2022/06/14 06:21:10;;;;;;;9.63;5.53;;;;;;;21.98;81.03;94995.00;5071701;28;20197;-80
2022/06/14 06:23:49;;;;;;;8.98;4.82;;;;;;;21.95;81.36;94971.41;5071757;28;20252;-80
2022/06/14 06:26:18;;;;;;;6.95;5.38;;;;;;;22.10;81.56;94994.66;5071819;28;20564;-80
2022/06/14 06:28:54;;;;;;;6.82;4.93;;;;;;;21.97;81.58;94966.56;5054446;28;20262;-80
2022/06/14 06:31:30;;;;;;;12.48;5.28;;;;;;;22.08;79.84;94980.72;5066710;28;20255;-80
2022/06/14 06:33:58;;;;;;;6.60;4.90;;;;;;;22.11;81.06;94969.44;5071426;28;20184;-80
2022/06/14 06:36:36;;;;;;;9.60;5.07;;;;;;;22.30;80.58;94991.03;5071385;28;20182;-80
2022/06/14 06:39:23;;;;;;;5.38;4.72;;;;;;;22.31;78.87;94993.44;5071587;28;20166;-80
2022/06/14 06:41:55;;;;;;;10.43;5.80;;;;;;;22.46;80.21;94995.97;5071075;28;20182;-80
2022/06/14 06:44:36;;;;;;;7.45;5.50;;;;;;;22.58;79.23;95003.66;5071637;28;20202;-80
2022/06/14 06:47:08;;;;;;;10.52;7.55;;;;;;;22.53;78.94;94982.22;5071565;28;20174;-81
2022/06/14 06:49:41;;;;;;;9.45;6.68;;;;;;;22.64;79.22;94989.13;5065536;28;20178;-80
2022/06/14 06:52:10;;;;;;;5.55;4.60;;;;;;;22.75;78.24;94997.88;5071350;28;20646;-80
2022/06/14 06:54:54;;;;;;;5.25;4.75;;;;;;;22.76;77.98;94991.44;5068609;28;20185;-80
2022/06/14 06:57:22;;;;;;;5.88;4.03;;;;;;;22.85;77.64;94993.22;5068848;28;20185;-79
2022/06/14 06:59:51;;;;;;;5.97;4.60;;;;;;;22.90;77.37;94987.81;5071177;28;20178;-80
2022/06/14 07:02:45;;;;;;;7.32;4.25;;;;;;;23.14;77.53;95017.38;5071433;28;20197;-79
2022/06/14 07:05:15;;;;;;;7.82;5.03;;;;;;;23.26;76.82;95017.75;5062156;28;20190;-80
2022/06/14 07:07:47;;;;;;;10.38;5.03;;;;;;;23.42;76.32;95014.91;5059680;28;20211;-80
2022/06/14 07:10:16;;;;;;;15.27;4.18;;;;;;;23.54;77.10;95013.41;5051333;28;20183;-79
2022/06/14 07:13:08;;;;;;;6.10;4.53;;;;;;;23.62;75.88;95018.16;5033624;28;20266;-80
2022/06/14 07:15:39;;;;;;;12.65;7.38;;;;;;;23.75;75.65;95016.66;5064977;28;20222;-80
2022/06/14 07:18:10;;;;;;;7.80;5.38;;;;;;;23.87;75.63;95025.06;5071030;28;20195;-80
2022/06/14 07:20:44;;;;;;;8.35;4.53;;;;;;;23.93;75.21;95023.13;5071542;28;20555;-80
2022/06/14 07:23:09;;;;;;;5.93;4.85;;;;;;;23.96;73.83;95025.22;5071432;28;20246;-80
2022/06/14 07:25:45;;;;;;;12.63;5.40;;;;;;;23.96;74.18;95022.53;5071557;28;20186;-81
2022/06/14 07:28:40;;;;;;;8.27;5.97;;;;;;;24.01;75.26;95019.78;5073672;28;20223;-79
2022/06/14 07:31:10;;;;;;;6.65;4.85;;;;;;;24.01;73.56;95022.50;5074933;28;20173;-77
2022/06/14 07:33:37;;;;;;;6.00;4.68;;;;;;;23.86;74.18;95025.41;5075306;28;20159;-80
2022/06/14 07:36:15;;;;;;;5.47;4.68;;;;;;;23.82;74.44;95029.75;5074994;28;20206;-80
2022/06/14 07:38:51;;;;;;;10.93;5.00;;;;;;;23.84;74.11;95031.06;5058196;28;20178;-79
2022/06/14 07:41:35;;;;;;;7.50;5.30;;;;;;;23.94;76.06;95030.94;5072003;28;20162;-79
2022/06/14 07:44:13;;;;;;;7.65;5.18;;;;;;;24.01;73.01;95036.75;5074706;28;20281;-80
2022/06/14 07:47:23;;;;;;;5.28;4.78;;;;;;;24.04;73.42;95032.69;5056653;28;20565;-80
2022/06/14 07:49:58;;;;;;;8.15;4.88;;;;;;;24.33;72.58;95032.53;5042998;28;20179;-80
2022/06/14 07:52:30;;;;;;;10.55;4.55;;;;;;;24.29;71.93;95012.69;5074680;28;20158;-80
2022/06/14 07:55:07;;;;;;;6.85;3.88;;;;;;;24.40;71.19;95031.06;5074800;28;20237;-80
2022/06/14 07:57:39;;;;;;;5.13;4.18;;;;;;;24.26;71.39;95015.97;5069196;28;20177;-79
2022/06/14 08:03:09;;;;;;;5.35;4.43;;;;;;;25.09;73.66;95029.38;5074734;28;20198;-79
2022/06/14 08:05:40;;;;;;;4.03;3.67;;;;;;;25.40;70.75;95007.25;5074154;28;20200;-79
2022/06/14 08:08:10;;;;;;;15.02;4.35;;;;;;;25.83;68.62;95029.31;5074320;28;20278;-80
2022/06/14 08:10:42;;;;;;;9.20;5.03;;;;;;;26.12;68.93;95035.13;5074348;28;20577;-79
2022/06/14 08:13:16;;;;;;;8.25;4.82;;;;;;;26.44;66.23;95025.28;5074290;28;20178;-81
2022/06/14 08:15:47;;;;;;;6.03;4.45;;;;;;;26.95;63.05;95019.44;5074716;28;20174;-81
2022/06/14 08:18:22;;;;;;;8.27;4.93;;;;;;;27.33;60.77;95030.59;5074386;28;20240;-80
2022/06/14 08:20:53;;;;;;;6.45;5.30;;;;;;;27.62;60.57;95033.59;5074274;28;20166;-79
2022/06/14 08:23:25;;;;;;;6.55;4.78;;;;;;;27.86;62.06;95026.97;5074462;28;20263;-78
2022/06/14 08:25:54;;;;;;;9.57;5.35;;;;;;;28.33;61.83;95025.31;5056190;28;20608;-78
2022/06/14 08:28:22;;;;;;;8.32;3.38;;;;;;;28.72;61.19;95024.31;5073897;28;20174;-78
2022/06/14 08:31:04;;;;;;;4.90;3.45;;;;;;;28.72;57.46;94998.00;5073971;28;20186;-78
2022/06/14 08:33:41;;;;;;;4.05;3.10;;;;;;;28.95;59.21;95008.69;5074288;28;20184;-78
2022/06/14 08:36:09;;;;;;;5.10;3.55;;;;;;;29.11;56.03;95015.19;5073848;28;20178;-80
2022/06/14 08:38:47;;;;;;;5.53;3.17;;;;;;;29.08;55.01;95013.09;5073283;28;20174;-80
2022/06/14 08:41:47;;;;;;;10.10;3.45;;;;;;;28.76;56.26;95009.84;5073974;28;20228;-79
2022/06/14 08:44:26;;;;;;;3.88;3.35;;;;;;;28.67;54.99;94997.38;5060402;28;20214;-80
2022/06/14 08:46:55;;;;;;;8.52;3.75;;;;;;;28.88;55.27;95011.91;5074148;28;20542;-79
2022/06/14 08:49:45;;;;;;;5.22;4.38;;;;;;;29.09;56.31;95015.50;5073731;28;20171;-80
2022/06/14 08:52:32;;;;;;;6.93;3.67;;;;;;;29.32;54.95;95007.13;5073574;28;20588;-78
2022/06/14 08:55:31;;;;;;;8.48;3.67;;;;;;;29.27;56.07;95016.22;5073502;28;20200;-78
2022/06/14 08:58:09;;;;;;;6.80;3.40;;;;;;;29.34;56.60;95007.59;5070191;28;20894;-77
2022/06/14 09:00:55;;;;;;;3.28;2.97;;;;;;;29.47;54.56;95004.69;5073609;28;20657;-79
2022/06/14 09:03:35;;;;;;;6.20;3.03;;;;;;;29.43;53.85;95003.75;5055294;28;20198;-80
2022/06/14 09:06:22;;;;;;;5.05;3.30;;;;;;;29.51;53.90;95007.53;5073540;28;20193;-80
2022/06/14 09:08:53;;;;;;;9.60;3.08;;;;;;;29.59;54.26;95006.69;5073406;28;20218;-79
2022/06/14 09:11:18;;;;;;;3.92;2.88;;;;;;;29.69;54.47;94998.19;5073530;28;20186;-78
2022/06/14 09:13:53;;;;;;;4.72;2.88;;;;;;;29.59;51.87;94995.84;5072990;28;20671;-79
2022/06/14 09:16:42;;;;;;;3.47;3.17;;;;;;;29.42;52.54;94999.44;5072181;28;20178;-78
2022/06/14 09:19:28;;;;;;;4.95;3.13;;;;;;;29.17;55.85;94997.59;5070932;28;20171;-79
2022/06/14 09:21:53;;;;;;;5.75;3.13;;;;;;;29.25;56.90;95007.63;5071542;28;20182;-78
2022/06/14 09:24:46;;;;;;;6.95;4.15;;;;;;;29.53;56.42;95011.53;5072434;28;20242;-79
2022/06/14 09:27:15;;;;;;;3.92;3.05;;;;;;;29.55;53.67;95012.00;5073400;28;20188;-78
2022/06/14 09:30:00;;;;;;;5.22;3.13;;;;;;;29.40;53.36;95003.63;5072967;28;20261;-78
2022/06/14 09:35:59;;;;;;;3.85;3.55;;;;;;;29.31;55.80;95005.53;5066645;28;20227;-79
2022/06/14 09:38:46;;;;;;;5.15;3.50;;;;;;;29.04;55.04;94995.91;5072628;28;20299;-82
2022/06/14 09:41:42;;;;;;;7.47;2.97;;;;;;;28.96;56.77;94997.53;5069268;28;20170;-84
2022/06/14 09:44:19;;;;;;;6.20;3.25;;;;;;;28.98;54.79;95006.09;5048379;28;20183;-82
2022/06/14 09:47:02;;;;;;;4.22;3.15;;;;;;;28.83;54.00;94995.78;5072567;28;20189;-82
2022/06/14 09:49:33;;;;;;;25.25;4.20;;;;;;;28.83;56.44;95003.91;5047025;28;20178;-82
2022/06/14 09:52:36;;;;;;;6.43;3.33;;;;;;;28.74;55.68;95001.19;5072490;28;20173;-80
2022/06/14 09:55:29;;;;;;;5.57;3.15;;;;;;;28.59;56.94;94984.66;5072198;28;20185;-79
2022/06/14 09:58:33;;;;;;;5.57;2.90;;;;;;;28.73;54.05;95006.94;5072820;28;20205;-79
2022/06/14 10:01:05;;;;;;;5.57;3.05;;;;;;;28.76;56.95;95012.56;5072675;28;20595;-78
2022/06/14 10:03:45;;;;;;;2.97;2.70;;;;;;;28.54;53.41;95005.34;5072486;28;20704;-79
2022/06/14 10:06:10;;;;;;;4.97;2.22;;;;;;;27.85;43.76;95012.63;5072096;28;20170;-79
2022/06/14 10:08:55;;;;;;;3.70;2.28;;;;;;;26.91;44.01;95018.44;5054684;28;20225;-79
2022/06/14 10:11:39;;;;;;;3.55;2.30;;;;;;;25.83;45.70;95021.22;5052191;28;20211;-79
2022/06/14 10:14:37;;;;;;;3.08;2.10;;;;;;;25.16;47.93;95026.31;5052110;28;20163;-78
2022/06/14 10:17:08;;;;;;;5.25;2.00;;;;;;;24.75;48.67;95029.69;5045086;28;20261;-78
2022/06/14 10:20:15;;;;;;;5.82;3.17;;;;;;;24.42;52.07;95025.41;5052186;28;20253;-80
2022/06/14 10:22:59;;;;;;;4.88;2.78;;;;;;;24.32;51.35;95025.53;5048801;28;20206;-78
2022/06/14 10:28:11;;;;;;;5.57;1.83;;;;;;;24.05;50.80;94999.28;5052237;28;20175;-78
2022/06/14 10:28:48;;;;;;;3.40;2.10;;;;;;;24.12;51.36;95031.22;5052117;28;20244;-78
2022/06/14 10:31:34;;;;;;;4.07;2.05;;;;;;;23.93;53.84;95013.19;5050811;28;20273;-78
2022/06/14 10:34:14;;;;;;;4.63;2.33;;;;;;;23.89;52.17;95022.91;5051718;28;20237;-78
2022/06/14 10:37:11;;;;;;;4.53;2.22;;;;;;;23.72;50.40;95009.16;5051954;28;20167;-78
2022/06/14 10:39:55;;;;;;;3.20;2.00;;;;;;;23.48;51.69;94997.63;5008784;28;20191;-80
2022/06/14 10:42:23;;;;;;;2.50;2.03;;;;;;;23.41;51.85;95006.03;5043424;28;20300;-81
2022/06/14 10:44:49;;;;;;;5.65;2.85;;;;;;;23.37;54.66;95010.38;5051656;28;20663;-82
2022/06/14 10:47:20;;;;;;;3.33;2.50;;;;;;;23.32;52.03;95007.75;5051675;28;20232;-81
2022/06/14 10:49:52;;;;;;;5.35;2.38;;;;;;;23.08;51.31;95002.41;5051761;28;20246;-81
2022/06/14 10:52:29;;;;;;;3.53;2.03;;;;;;;22.90;52.91;95003.94;5051709;28;20163;-80
2022/06/14 10:54:58;;;;;;;4.65;2.28;;;;;;;22.92;53.29;94996.38;5059706;28;20197;-80
2022/06/14 10:57:37;;;;;;;3.67;2.38;;;;;;;22.66;53.31;94997.66;5054089;28;20179;-80
2022/06/14 11:00:08;;;;;;;3.53;1.77;;;;;;;22.76;54.46;94994.13;5055272;28;20167;-80
2022/06/14 11:03:01;;;;;;;4.88;2.20;;;;;;;22.86;54.21;94997.50;5065791;28;20234;-80
2022/06/14 11:05:38;;;;;;;4.72;2.20;;;;;;;22.94;53.00;94996.88;5055646;28;20186;-80
2022/06/14 11:08:16;;;;;;;2.80;2.00;;;;;;;22.92;53.78;94998.25;5068032;28;20214;-80
2022/06/14 11:11:06;;;;;;;4.28;2.10;;;;;;;22.88;53.89;94991.84;5076019;28;20277;-80
2022/06/14 11:13:45;;;;;;;2.42;2.05;;;;;;;22.90;56.37;94995.06;5068813;28;20201;-81
2022/06/14 11:16:30;;;;;;;3.75;2.63;;;;;;;22.70;55.98;94969.19;5074808;28;20264;-81
2022/06/14 11:19:05;;;;;;;5.20;2.10;;;;;;;22.65;59.25;94974.63;5078446;28;20182;-80
2022/06/14 11:21:33;;;;;;;3.03;2.42;;;;;;;22.90;58.02;95006.59;5074811;28;20162;-80
2022/06/14 11:24:04;;;;;;;9.38;2.58;;;;;;;22.77;59.40;94977.72;5050014;28;20212;-81
2022/06/14 11:26:48;;;;;;;6.70;2.80;;;;;;;22.69;60.20;94996.31;5073767;28;20197;-79
2022/06/14 11:29:28;;;;;;;8.45;3.17;;;;;;;22.79;61.98;94996.25;5075109;28;20221;-82
2022/06/14 11:32:10;;;;;;;7.75;2.70;;;;;;;22.98;60.20;94997.13;5067912;28;20240;-82
2022/06/14 11:34:54;;;;;;;4.10;2.65;;;;;;;23.03;57.41;95001.63;5074702;28;20181;-81
2022/06/14 11:37:41;;;;;;;9.65;2.70;;;;;;;23.02;58.71;94992.78;5057084;28;20248;-81
2022/06/14 11:40:25;;;;;;;4.35;2.88;;;;;;;22.95;57.37;94954.72;5067735;28;20691;-80
2022/06/14 11:43:29;;;;;;;4.80;3.17;;;;;;;23.47;59.44;94980.69;5054659;28;20710;-79
2022/06/14 11:46:02;;;;;;;2.20;2.00;;;;;;;23.78;57.06;94967.69;5077828;28;21005;-79
2022/06/14 11:48:37;;;;;;;4.88;2.20;;;;;;;24.07;55.46;94973.69;5072222;28;20178;-79
2022/06/14 11:51:24;;;;;;;4.20;2.03;;;;;;;24.54;56.36;94973.78;5066440;28;20174;-79
2022/06/14 11:54:10;;;;;;;2.40;2.13;;;;;;;25.05;59.81;94960.22;5073776;28;20236;-79
2022/06/14 11:56:54;;;;;;;2.47;2.28;;;;;;;25.31;54.60;94949.75;5072798;28;20278;-78
2022/06/14 11:59:44;;;;;;;4.68;2.80;;;;;;;25.39;55.46;94966.00;5067599;28;20178;-78
2022/06/14 12:02:38;;;;;;;2.97;2.45;;;;;;;25.33;55.96;94956.44;5065898;28;20198;-79
2022/06/14 12:05:22;;;;;;;2.53;2.13;;;;;;;25.15;58.98;94949.25;5056359;28;20166;-79
2022/06/14 12:08:23;;;;;;;5.75;2.50;;;;;;;25.11;60.00;94932.88;5065483;28;20306;-79
2022/06/14 12:11:00;;;;;;;2.45;2.25;;;;;;;25.39;60.45;94943.66;5026256;28;20270;-80
2022/06/14 12:14:01;;;;;;;3.65;2.50;;;;;;;25.71;57.89;94953.50;5045746;28;20189;-78
2022/06/14 12:16:42;;;;;;;4.28;2.35;;;;;;;25.77;57.44;94925.34;5055161;28;20250;-79
2022/06/14 12:19:12;;;;;;;4.78;2.33;;;;;;;26.20;58.53;94950.75;5039287;28;20166;-78
2022/06/14 12:21:43;;;;;;;5.35;2.15;;;;;;;26.14;58.80;94903.38;5062480;28;20171;-79
2022/06/14 12:24:16;;;;;;;4.65;2.78;;;;;;;26.47;52.67;94957.13;5062766;28;20191;-79
2022/06/14 12:26:59;;;;;;;8.55;2.85;;;;;;;26.38;52.76;94972.50;5071866;28;20191;-79
2022/06/14 12:29:44;;;;;;;4.75;2.08;;;;;;;26.12;53.54;94931.81;5063395;28;20189;-78